< < Back
Terminal Aerodrome Forecast


Current Version              Previous Versions:   1  2  3  4  5  6  7  8  9  

Terminal Aerodrome Forecast

471
FTAK31 PAJN 182300
TAFAHN
TAF
PAHN 182326Z 1900/1924 30012KT P6SM SCT070 OVC100
     FM190700 30008KT 6SM -SN BKN030 OVC050
     FM191300 30012KT P6SM VCSH BKN035 OVC050
     FM192000 30010KT P6SM BKN040 OVC050
      AMD LTD TO CLD VIS AND WIND=



Latest METAR

387
SAUS70 KWBC 182300
MTRAHN
METAR KAHN 182251Z 00000KT 10SM OVC050 12/M01 A3008 RMK AO2 SLP188
T01221006


USA.gov is the U.S. government's official web portal to all federal, state and local government web resources and services.